createdAt,value
2018-02-26T00:00:42.452Z,0
2018-02-26T00:01:41.920Z,0
2018-02-26T00:02:42.430Z,0
2018-02-26T00:03:41.869Z,0
2018-02-26T00:04:42.367Z,0
2018-02-26T00:05:42.114Z,0
2018-02-26T00:06:42.327Z,0
2018-02-26T00:07:42.360Z,0
2018-02-26T00:08:42.305Z,0
2018-02-26T00:09:42.274Z,0
2018-02-26T00:10:42.005Z,0
2018-02-26T00:11:42.223Z,0
2018-02-26T00:12:42.218Z,0
2018-02-26T00:13:42.206Z,0
2018-02-26T00:14:41.920Z,0
2018-02-26T00:15:42.176Z,0
2018-02-26T00:16:42.158Z,0
2018-02-26T00:17:42.119Z,0
2018-02-26T00:18:41.826Z,0
2018-02-26T00:19:42.076Z,0
2018-02-26T00:20:42.059Z,0
2018-02-26T00:21:42.029Z,0
2018-02-26T00:22:42.095Z,0
2018-02-26T00:23:42.235Z,0
2018-02-26T00:24:41.964Z,0
2018-02-26T00:25:42.012Z,0
2018-02-26T00:26:41.680Z,0
2018-02-26T00:27:41.654Z,0
2018-02-26T00:28:41.887Z,0
2018-02-26T00:29:41.616Z,0
2018-02-26T00:30:41.882Z,0
2018-02-26T00:31:41.825Z,0
2018-02-26T00:32:41.816Z,0
2018-02-26T00:33:42.103Z,0
2018-02-26T00:34:41.766Z,0
2018-02-26T00:35:41.747Z,0
2018-02-26T00:36:41.731Z,0
2018-02-26T00:37:41.724Z,0
2018-02-26T00:38:41.684Z,0
2018-02-26T00:39:41.680Z,0
2018-02-26T00:40:41.656Z,0
2018-02-26T00:41:41.637Z,0
2018-02-26T00:42:41.610Z,0
2018-02-26T00:43:41.334Z,0
2018-02-26T00:44:41.569Z,0
2018-02-26T00:45:41.551Z,0
2018-02-26T00:46:41.556Z,0
2018-02-26T00:47:41.518Z,0
2018-02-26T00:48:41.511Z,0
2018-02-26T00:49:41.469Z,0
2018-02-26T00:50:41.440Z,0
2018-02-26T00:51:41.440Z,0
2018-02-26T00:52:41.415Z,0
2018-02-26T00:53:41.388Z,0
2018-02-26T00:54:41.616Z,0
2018-02-26T00:55:41.346Z,0
2018-02-26T00:56:41.336Z,0
2018-02-26T00:57:41.323Z,0
2018-02-26T00:58:41.287Z,0
2018-02-26T00:59:41.285Z,0
2018-02-26T01:00:40.985Z,0
2018-02-26T01:01:41.239Z,0
2018-02-26T01:02:41.198Z,0
2018-02-26T01:03:40.928Z,0
2018-02-26T01:04:40.908Z,0
2018-02-26T01:05:41.136Z,0
2018-02-26T01:06:41.129Z,0
2018-02-26T01:07:41.093Z,0
2018-02-26T01:08:41.083Z,0
2018-02-26T01:09:40.815Z,0
2018-02-26T01:10:41.057Z,0
2018-02-26T01:11:41.024Z,0
2018-02-26T01:12:41.005Z,0
2018-02-26T01:13:40.986Z,0
2018-02-26T01:14:40.961Z,0
2018-02-26T01:15:40.939Z,0
2018-02-26T01:16:40.719Z,0
2018-02-26T01:17:40.922Z,0
2018-02-26T01:18:40.900Z,0
2018-02-26T01:19:40.601Z,0
2018-02-26T01:20:40.859Z,0
2018-02-26T01:21:40.807Z,0
2018-02-26T01:22:40.825Z,0
2018-02-26T01:23:40.774Z,0
2018-02-26T01:24:40.757Z,0
2018-02-26T01:25:40.992Z,0
2018-02-26T01:26:40.722Z,0
2018-02-26T01:27:40.696Z,0
2018-02-26T01:28:40.688Z,0
2018-02-26T01:29:40.394Z,0
2018-02-26T01:30:40.655Z,0
2018-02-26T01:31:40.623Z,0
2018-02-26T01:32:40.343Z,0
2018-02-26T01:33:40.571Z,0
2018-02-26T01:34:40.559Z,0
2018-02-26T01:35:40.277Z,0
2018-02-26T01:36:40.510Z,0
2018-02-26T01:37:40.501Z,0
2018-02-26T01:38:40.475Z,0
2018-02-26T01:39:40.454Z,0
2018-02-26T01:40:40.178Z,0
2018-02-26T01:41:40.424Z,0
2018-02-26T01:42:40.377Z,0
2018-02-26T01:43:40.108Z,0
2018-02-26T01:44:40.449Z,0
2018-02-26T01:45:40.348Z,0
2018-02-26T01:46:40.305Z,0
2018-02-26T01:47:40.301Z,0
2018-02-26T01:48:40.262Z,0
2018-02-26T01:49:40.276Z,0
2018-02-26T01:50:39.974Z,0
2018-02-26T01:51:40.215Z,0
2018-02-26T01:52:40.194Z,0
2018-02-26T01:53:40.157Z,0
2018-02-26T01:54:39.877Z,0
2018-02-26T01:55:40.117Z,0
2018-02-26T01:56:40.345Z,0
2018-02-26T01:57:39.815Z,0
2018-02-26T01:58:40.070Z,0
2018-02-26T01:59:39.788Z,0
2018-02-26T02:00:40.019Z,0
2018-02-26T02:01:39.995Z,0
2018-02-26T02:02:39.721Z,0
2018-02-26T02:03:39.702Z,0
2018-02-26T02:04:39.697Z,0
2018-02-26T02:05:39.682Z,0
2018-02-26T02:06:39.904Z,0
2018-02-26T02:07:39.885Z,0
2018-02-26T02:08:39.614Z,0
2018-02-26T02:09:39.847Z,0
2018-02-26T02:10:39.811Z,0
2018-02-26T02:11:39.800Z,0
2018-02-26T02:12:39.777Z,0
2018-02-26T02:13:39.755Z,0
2018-02-26T02:14:39.725Z,0
2018-02-26T02:15:39.719Z,0
2018-02-26T02:16:39.675Z,0
2018-02-26T02:17:39.680Z,0
2018-02-26T02:18:39.656Z,0
2018-02-26T02:19:39.646Z,0
2018-02-26T02:20:39.617Z,0
2018-02-26T02:21:39.592Z,0
2018-02-26T02:22:39.573Z,0
2018-02-26T02:23:39.550Z,0
2018-02-26T02:24:39.535Z,0
2018-02-26T02:25:39.507Z,0
2018-02-26T02:26:39.502Z,0
2018-02-26T02:27:39.449Z,0
2018-02-26T02:28:39.449Z,0
2018-02-26T02:29:39.421Z,0
2018-02-26T02:30:39.396Z,0
2018-02-26T02:31:39.113Z,0
2018-02-26T02:32:39.359Z,0
2018-02-26T02:33:39.353Z,0
2018-02-26T02:34:39.337Z,0
2018-02-26T02:35:39.309Z,0
2018-02-26T02:36:39.304Z,0
2018-02-26T02:37:39.255Z,0
2018-02-26T02:38:39.586Z,0
2018-02-26T02:39:39.236Z,0
2018-02-26T02:40:39.203Z,0
2018-02-26T02:41:39.193Z,0
2018-02-26T02:42:39.173Z,0
2018-02-26T02:43:39.121Z,0
2018-02-26T02:44:39.126Z,0
2018-02-26T02:45:39.126Z,0
2018-02-26T02:46:39.075Z,0
2018-02-26T02:47:39.040Z,0
2018-02-26T02:48:39.030Z,0
2018-02-26T02:49:38.996Z,0
2018-02-26T02:50:38.987Z,0
2018-02-26T02:51:38.962Z,0
2018-02-26T02:52:38.952Z,0
2018-02-26T02:53:38.935Z,0
2018-02-26T02:54:38.903Z,0
2018-02-26T02:55:38.877Z,0
2018-02-26T02:56:38.608Z,0
2018-02-26T02:57:38.585Z,0
2018-02-26T02:58:38.831Z,0
2018-02-26T02:59:38.804Z,0
2018-02-26T03:00:38.794Z,0
2018-02-26T03:01:38.569Z,0
2018-02-26T03:02:38.741Z,0
2018-02-26T03:03:38.727Z,0
2018-02-26T03:04:38.714Z,0
2018-02-26T03:05:38.680Z,0
2018-02-26T03:06:38.667Z,4
2018-02-26T03:07:38.389Z,4
2018-02-26T03:08:38.606Z,4
2018-02-26T03:09:38.585Z,4
2018-02-26T03:10:38.581Z,4
2018-02-26T03:11:38.550Z,4
2018-02-26T03:12:38.536Z,0
2018-02-26T03:13:38.503Z,0
2018-02-26T03:14:38.543Z,0
2018-02-26T03:15:38.469Z,0
2018-02-26T03:16:38.438Z,0
2018-02-26T03:17:38.414Z,0
2018-02-26T03:18:38.396Z,0
2018-02-26T03:19:38.136Z,0
2018-02-26T03:20:38.356Z,0
2018-02-26T03:21:38.337Z,0
2018-02-26T03:22:38.310Z,0
2018-02-26T03:23:38.289Z,0
2018-02-26T03:24:38.279Z,0
2018-02-26T03:25:38.248Z,0
2018-02-26T03:26:38.217Z,0
2018-02-26T03:27:38.242Z,0
2018-02-26T03:28:38.194Z,0
2018-02-26T03:29:38.186Z,0
2018-02-26T03:30:38.161Z,0
2018-02-26T03:31:38.154Z,0
2018-02-26T03:32:38.106Z,0
2018-02-26T03:33:38.078Z,0
2018-02-26T03:34:37.540Z,0
2018-02-26T03:35:38.041Z,0
2018-02-26T03:36:38.039Z,0
2018-02-26T03:37:37.757Z,0
2018-02-26T03:38:37.735Z,0
2018-02-26T03:39:37.961Z,0
2018-02-26T03:40:37.927Z,0
2018-02-26T03:41:37.909Z,0
2018-02-26T03:42:37.898Z,0
2018-02-26T03:43:37.627Z,0
2018-02-26T03:44:37.849Z,0
2018-02-26T03:45:37.836Z,0
2018-02-26T03:46:37.309Z,0
2018-02-26T03:47:37.786Z,0
2018-02-26T03:48:37.762Z,0
2018-02-26T03:49:37.765Z,0
2018-02-26T03:50:37.734Z,0
2018-02-26T03:51:37.698Z,0
2018-02-26T03:52:37.688Z,0
2018-02-26T03:53:37.670Z,0
2018-02-26T03:54:37.642Z,0
2018-02-26T03:55:37.095Z,0
2018-02-26T03:56:37.354Z,0
2018-02-26T03:57:37.579Z,0
2018-02-26T03:58:37.309Z,0
2018-02-26T03:59:37.540Z,0
2018-02-26T04:00:37.526Z,0
2018-02-26T04:01:37.237Z,0
2018-02-26T04:02:37.480Z,0
2018-02-26T04:03:37.455Z,0
2018-02-26T04:04:37.189Z,0
2018-02-26T04:05:37.160Z,0
2018-02-26T04:06:37.387Z,0
2018-02-26T04:07:37.109Z,0
2018-02-26T04:08:37.091Z,0
2018-02-26T04:09:37.066Z,0
2018-02-26T04:10:37.309Z,0
2018-02-26T04:11:37.303Z,0
2018-02-26T04:12:37.273Z,0
2018-02-26T04:13:37.272Z,0
2018-02-26T04:14:37.219Z,0
2018-02-26T04:15:37.212Z,0
2018-02-26T04:16:37.210Z,0
2018-02-26T04:17:37.170Z,0
2018-02-26T04:18:37.139Z,0
2018-02-26T04:19:37.132Z,0
2018-02-26T04:20:37.107Z,0
2018-02-26T04:21:37.084Z,0
2018-02-26T04:22:37.070Z,0
2018-02-26T04:23:37.056Z,0
2018-02-26T04:24:37.021Z,0
2018-02-26T04:25:36.987Z,0
2018-02-26T04:26:36.990Z,0
2018-02-26T04:27:36.957Z,0
2018-02-26T04:28:36.940Z,0
2018-02-26T04:29:36.922Z,0
2018-02-26T04:30:36.909Z,0
2018-02-26T04:31:36.872Z,0
2018-02-26T04:32:36.871Z,0
2018-02-26T04:33:36.566Z,0
2018-02-26T04:34:36.819Z,0
2018-02-26T04:35:36.811Z,0
2018-02-26T04:36:36.762Z,0
2018-02-26T04:37:36.487Z,0
2018-02-26T04:38:36.739Z,0
2018-02-26T04:39:36.707Z,0
2018-02-26T04:40:36.741Z,0
2018-02-26T04:41:36.674Z,0
2018-02-26T04:42:36.644Z,0
2018-02-26T04:43:36.654Z,0
2018-02-26T04:44:36.607Z,0
2018-02-26T04:45:36.576Z,0
2018-02-26T04:46:36.561Z,0
2018-02-26T04:47:36.542Z,0
2018-02-26T04:48:36.533Z,0
2018-02-26T04:49:36.267Z,0
2018-02-26T04:50:36.482Z,0
2018-02-26T04:51:36.206Z,0
2018-02-26T04:52:36.193Z,0
2018-02-26T04:53:36.440Z,0
2018-02-26T04:54:36.405Z,0
2018-02-26T04:55:36.176Z,0
2018-02-26T04:56:36.106Z,0
2018-02-26T04:57:36.090Z,0
2018-02-26T04:58:36.390Z,0
2018-02-26T04:59:36.334Z,0
2018-02-26T05:00:36.286Z,0
2018-02-26T05:01:36.276Z,0
2018-02-26T05:02:35.986Z,0
2018-02-26T05:03:36.221Z,0
2018-02-26T05:04:36.224Z,0
2018-02-26T05:05:36.180Z,0
2018-02-26T05:06:36.178Z,0
2018-02-26T05:07:36.141Z,0
2018-02-26T05:08:36.138Z,0
2018-02-26T05:09:36.104Z,0
2018-02-26T05:10:36.080Z,0
2018-02-26T05:11:36.068Z,0
2018-02-26T05:12:36.039Z,0
2018-02-26T05:13:35.529Z,0
2018-02-26T05:14:36.008Z,0
2018-02-26T05:15:35.983Z,0
2018-02-26T05:16:35.978Z,0
2018-02-26T05:17:36.050Z,0
2018-02-26T05:18:35.919Z,0
2018-02-26T05:19:35.647Z,0
2018-02-26T05:20:35.890Z,0
2018-02-26T05:21:35.891Z,0
2018-02-26T05:22:35.595Z,0
2018-02-26T05:23:35.823Z,0
2018-02-26T05:24:35.551Z,0
2018-02-26T05:25:35.800Z,0
2018-02-26T05:26:35.774Z,4
2018-02-26T05:27:35.748Z,0
2018-02-26T05:28:35.731Z,0
2018-02-26T05:29:35.749Z,4
2018-02-26T05:30:35.700Z,0
2018-02-26T05:31:35.410Z,4
2018-02-26T05:32:35.653Z,4
2018-02-26T05:33:35.632Z,4
2018-02-26T05:34:35.355Z,8
2018-02-26T05:35:35.595Z,8
2018-02-26T05:36:35.564Z,8
2018-02-26T05:37:35.561Z,8
2018-02-26T05:38:35.529Z,8
2018-02-26T05:39:35.521Z,16
2018-02-26T05:40:35.240Z,16
2018-02-26T05:41:35.478Z,16
2018-02-26T05:42:35.198Z,24
2018-02-26T05:43:35.180Z,24
2018-02-26T05:44:35.438Z,32
2018-02-26T05:45:35.384Z,36
2018-02-26T05:46:35.116Z,44
2018-02-26T05:47:35.096Z,52
2018-02-26T05:48:35.343Z,60
2018-02-26T05:49:35.060Z,64
2018-02-26T05:50:35.038Z,76
2018-02-26T05:51:35.305Z,92
2018-02-26T05:52:34.743Z,108
2018-02-26T05:53:35.232Z,128
2018-02-26T05:54:34.972Z,144
2018-02-26T05:55:34.970Z,168
2018-02-26T05:56:35.182Z,188
2018-02-26T05:57:35.160Z,208
2018-02-26T05:58:34.887Z,236
2018-02-26T05:59:35.128Z,268
2018-02-26T06:00:35.099Z,296
2018-02-26T06:01:34.820Z,336
2018-02-26T06:02:35.209Z,360
2018-02-26T06:03:35.044Z,388
2018-02-26T06:04:34.754Z,424
2018-02-26T06:05:35.007Z,468
2018-02-26T06:06:34.979Z,508
2018-02-26T06:07:34.691Z,556
2018-02-26T06:08:34.943Z,600
2018-02-26T06:09:34.924Z,644
2018-02-26T06:10:34.650Z,700
2018-02-26T06:11:34.920Z,748
2018-02-26T06:12:34.861Z,800
2018-02-26T06:13:34.584Z,856
2018-02-26T06:14:34.835Z,916
2018-02-26T06:15:34.938Z,980
2018-02-26T06:16:34.794Z,1052
2018-02-26T06:17:34.756Z,1112
2018-02-26T06:18:34.768Z,1144
2018-02-26T06:19:34.212Z,1188
2018-02-26T06:20:34.716Z,1244
2018-02-26T06:21:34.821Z,1308
2018-02-26T06:22:34.681Z,1380
2018-02-26T06:23:34.381Z,1460
2018-02-26T06:24:34.633Z,1544
2018-02-26T06:25:34.355Z,1648
2018-02-26T06:26:34.595Z,1752
2018-02-26T06:27:34.571Z,1832
2018-02-26T06:28:34.543Z,1932
2018-02-26T06:29:34.542Z,2076
2018-02-26T06:30:34.236Z,2220
2018-02-26T06:31:34.477Z,2316
2018-02-26T06:32:34.470Z,2380
2018-02-26T06:33:34.517Z,2504
2018-02-26T06:34:34.450Z,2628
2018-02-26T06:35:34.426Z,2756
2018-02-26T06:36:34.375Z,2876
2018-02-26T06:37:34.356Z,2996
2018-02-26T06:38:34.095Z,3120
2018-02-26T06:39:34.328Z,3240
2018-02-26T06:40:34.304Z,3352
2018-02-26T06:41:33.761Z,3416
2018-02-26T06:42:33.999Z,3480
2018-02-26T06:43:34.244Z,3576
2018-02-26T06:44:33.976Z,3740
2018-02-26T06:45:34.205Z,3844
2018-02-26T06:46:34.195Z,3968
2018-02-26T06:47:34.162Z,4056
2018-02-26T06:48:34.153Z,4184
2018-02-26T06:49:33.871Z,4352
2018-02-26T06:50:34.100Z,4500
2018-02-26T06:51:33.832Z,4644
2018-02-26T06:52:34.067Z,4792
2018-02-26T06:53:33.794Z,4924
2018-02-26T06:54:34.033Z,5044
2018-02-26T06:55:34.017Z,5140
2018-02-26T06:56:34.002Z,5236
2018-02-26T06:57:33.976Z,5268
2018-02-26T06:58:33.961Z,5352
2018-02-26T06:59:33.957Z,5544
2018-02-26T07:00:33.947Z,5860
2018-02-26T07:01:33.923Z,6172
2018-02-26T07:02:33.889Z,6468
2018-02-26T07:03:33.875Z,6624
2018-02-26T07:04:33.851Z,6896
2018-02-26T07:05:33.906Z,7292
2018-02-26T07:06:33.840Z,7560
2018-02-26T07:07:33.805Z,7696
2018-02-26T07:08:33.788Z,7912
2018-02-26T07:09:33.799Z,8260
2018-02-26T07:10:33.795Z,8596
2018-02-26T07:11:33.756Z,9092
2018-02-26T07:12:33.727Z,9420
2018-02-26T07:13:33.469Z,9808
2018-02-26T07:14:33.446Z,10012
2018-02-26T07:15:33.686Z,10172
2018-02-26T07:16:33.670Z,10404
2018-02-26T07:17:33.382Z,10840
2018-02-26T07:18:33.623Z,11336
2018-02-26T07:19:33.362Z,11904
2018-02-26T07:20:33.621Z,11392
2018-02-26T07:21:33.590Z,9708
2018-02-26T07:22:33.582Z,11816
2018-02-26T07:23:33.559Z,11148
2018-02-26T07:24:33.291Z,9824
2018-02-26T07:25:33.526Z,9944
2018-02-26T07:26:33.256Z,9760
2018-02-26T07:27:33.504Z,10448
2018-02-26T07:28:33.499Z,10092
2018-02-26T07:29:33.215Z,8924
2018-02-26T07:30:33.458Z,10080
2018-02-26T07:31:33.445Z,10588
2018-02-26T07:32:33.420Z,9008
2018-02-26T07:33:33.154Z,10632
2018-02-26T07:34:32.608Z,11028
2018-02-26T07:35:33.128Z,11332
2018-02-26T07:36:33.103Z,11488
2018-02-26T07:37:33.343Z,11568
2018-02-26T07:38:33.074Z,11784
2018-02-26T07:39:32.788Z,12072
2018-02-26T07:40:33.311Z,11600
2018-02-26T07:41:33.279Z,11736
2018-02-26T07:42:32.760Z,12316
2018-02-26T07:43:33.259Z,12644
2018-02-26T07:44:33.248Z,12928
2018-02-26T07:45:32.699Z,12996
2018-02-26T07:46:32.691Z,13664
2018-02-26T07:47:32.926Z,13348
2018-02-26T07:48:32.908Z,13108
2018-02-26T07:49:32.647Z,13516
2018-02-26T07:50:32.881Z,14112
2018-02-26T07:51:32.889Z,14048
2018-02-26T07:52:32.867Z,14368
2018-02-26T07:53:33.011Z,14816
2018-02-26T07:54:32.824Z,14816
2018-02-26T07:55:32.812Z,14976
2018-02-26T07:56:33.057Z,15040
2018-02-26T07:57:32.785Z,12596
2018-02-26T07:58:33.082Z,7540
2018-02-26T07:59:32.995Z,5420
2018-02-26T08:00:33.017Z,5448
2018-02-26T08:01:32.980Z,5240
2018-02-26T08:02:32.982Z,5168
2018-02-26T08:03:32.441Z,5260
2018-02-26T08:04:32.418Z,5272
2018-02-26T08:05:32.679Z,5340
2018-02-26T08:06:32.429Z,5560
2018-02-26T08:07:32.621Z,5504
2018-02-26T08:08:32.607Z,5344
2018-02-26T08:09:32.867Z,5344
2018-02-26T08:10:32.574Z,5360
2018-02-26T08:11:32.556Z,5464
2018-02-26T08:12:32.798Z,5508
2018-02-26T08:13:32.781Z,5772
2018-02-26T08:14:32.489Z,6444
2018-02-26T08:15:32.485Z,7528
2018-02-26T08:16:32.730Z,8452
2018-02-26T08:17:32.698Z,7492
2018-02-26T08:18:32.699Z,7700
2018-02-26T08:19:32.488Z,10404
2018-02-26T08:20:32.678Z,11088
2018-02-26T08:21:32.646Z,8656
2018-02-26T08:22:32.375Z,9240
2018-02-26T08:23:32.599Z,8112
2018-02-26T08:24:32.319Z,9460
2018-02-26T08:25:32.292Z,9088
2018-02-26T08:26:32.548Z,10596
2018-02-26T08:27:32.008Z,10188
2018-02-26T08:28:32.508Z,8116
2018-02-26T08:29:32.495Z,7160
2018-02-26T08:30:32.474Z,7840
2018-02-26T08:31:32.201Z,8048
2018-02-26T08:32:32.178Z,9832
2018-02-26T08:33:32.419Z,10884
2018-02-26T08:34:32.160Z,11008
2018-02-26T08:35:32.379Z,11332
2018-02-26T08:36:32.170Z,9248
2018-02-26T08:37:32.089Z,6856
2018-02-26T08:38:32.326Z,6692
2018-02-26T08:39:32.325Z,6912
2018-02-26T08:40:32.039Z,7848
2018-02-26T08:41:32.082Z,9912
2018-02-26T08:42:31.986Z,9492
2018-02-26T08:43:32.252Z,10772
2018-02-26T08:44:31.980Z,11392
2018-02-26T08:45:31.950Z,7924
2018-02-26T08:46:31.926Z,6228
2018-02-26T08:47:32.170Z,6468
2018-02-26T08:48:32.148Z,6668
2018-02-26T08:49:31.963Z,7276
2018-02-26T08:50:32.108Z,8132
2018-02-26T08:51:32.099Z,8612
2018-02-26T08:52:32.088Z,7480
2018-02-26T08:53:32.061Z,6708
2018-02-26T08:54:32.084Z,6144
2018-02-26T08:55:32.025Z,6216
2018-02-26T08:56:31.762Z,6384
2018-02-26T08:57:31.998Z,6424
2018-02-26T08:58:32.002Z,6404
2018-02-26T08:59:31.709Z,6132
2018-02-26T09:00:31.690Z,6012
2018-02-26T09:01:31.922Z,6456
2018-02-26T09:02:31.916Z,7172
2018-02-26T09:03:31.911Z,6972
2018-02-26T09:04:31.869Z,6752
2018-02-26T09:05:31.859Z,6808
2018-02-26T09:06:31.598Z,7524
2018-02-26T09:07:31.835Z,7616
2018-02-26T09:08:31.793Z,7208
2018-02-26T09:09:31.513Z,7144
2018-02-26T09:10:31.762Z,6952
2018-02-26T09:11:31.554Z,6632
2018-02-26T09:12:31.720Z,7072
2018-02-26T09:13:31.719Z,7968
2018-02-26T09:14:31.441Z,8660
2018-02-26T09:15:31.676Z,7788
2018-02-26T09:16:31.657Z,7596
2018-02-26T09:17:31.644Z,7728
2018-02-26T09:18:31.645Z,7156
2018-02-26T09:19:31.350Z,6704
2018-02-26T09:20:31.324Z,6788
2018-02-26T09:21:31.304Z,7636
2018-02-26T09:22:31.541Z,9544
2018-02-26T09:23:31.585Z,11684
2018-02-26T09:24:31.253Z,12880
2018-02-26T09:25:31.227Z,12580
2018-02-26T09:26:31.488Z,12840
2018-02-26T09:27:31.496Z,13004
2018-02-26T09:28:31.205Z,10552
2018-02-26T09:29:30.905Z,9524
2018-02-26T09:30:31.406Z,10396
2018-02-26T09:31:31.419Z,8772
2018-02-26T09:32:31.379Z,8140
2018-02-26T09:33:31.089Z,7152
2018-02-26T09:34:30.810Z,7356
2018-02-26T09:35:31.301Z,7632
2018-02-26T09:36:31.303Z,7636
2018-02-26T09:37:30.770Z,6912
2018-02-26T09:38:31.286Z,7104
2018-02-26T09:39:30.993Z,7432
2018-02-26T09:40:31.246Z,8040
2018-02-26T09:41:31.238Z,9768
2018-02-26T09:42:31.204Z,11336
2018-02-26T09:43:30.662Z,11944
2018-02-26T09:44:30.679Z,11888
2018-02-26T09:45:31.144Z,12372
2018-02-26T09:46:31.152Z,12460
2018-02-26T09:47:30.880Z,12528
2018-02-26T09:48:31.123Z,11952
2018-02-26T09:49:30.832Z,11380
2018-02-26T09:50:31.066Z,10784
2018-02-26T09:51:31.032Z,10668
2018-02-26T09:52:31.088Z,10728
2018-02-26T09:53:31.027Z,11780
2018-02-26T09:54:30.982Z,12732
2018-02-26T09:55:30.746Z,10100
2018-02-26T09:56:30.699Z,9948
2018-02-26T09:57:30.963Z,10488
2018-02-26T09:58:30.934Z,11564
2018-02-26T09:59:30.676Z,13164
2018-02-26T10:00:30.885Z,12580
2018-02-26T10:01:30.870Z,11384
2018-02-26T10:02:30.866Z,10708
2018-02-26T10:03:30.847Z,10304
2018-02-26T10:04:30.562Z,10568
2018-02-26T10:05:30.814Z,11380
2018-02-26T10:06:30.899Z,12124
2018-02-26T10:07:30.520Z,12900
2018-02-26T10:08:30.761Z,12824
2018-02-26T10:09:30.761Z,11820
2018-02-26T10:10:30.732Z,10632
2018-02-26T10:11:30.475Z,10652
2018-02-26T10:12:30.728Z,11588
2018-02-26T10:13:30.782Z,12452
2018-02-26T10:14:30.663Z,13008
2018-02-26T10:15:30.662Z,13068
2018-02-26T10:16:30.369Z,12580
2018-02-26T10:17:30.616Z,12856
2018-02-26T10:18:30.094Z,12732
2018-02-26T10:19:30.452Z,13028
2018-02-26T10:20:30.578Z,13088
2018-02-26T10:21:30.311Z,13216
2018-02-26T10:22:30.276Z,12588
2018-02-26T10:23:30.526Z,11964
2018-02-26T10:24:30.253Z,11032
2018-02-26T10:25:30.488Z,10688
2018-02-26T10:26:30.477Z,10384
2018-02-26T10:27:30.684Z,10172
2018-02-26T10:28:30.450Z,10216
2018-02-26T10:29:30.456Z,10300
2018-02-26T10:30:30.150Z,9496
2018-02-26T10:31:30.404Z,9008
2018-02-26T10:32:30.384Z,9172
2018-02-26T10:33:30.371Z,9520
2018-02-26T10:34:30.370Z,11008
2018-02-26T10:35:30.333Z,12064
2018-02-26T10:36:30.337Z,10920
2018-02-26T10:37:30.032Z,11772
2018-02-26T10:38:29.805Z,12700
2018-02-26T10:39:30.312Z,12160
2018-02-26T10:40:30.284Z,11876
2018-02-26T10:41:30.002Z,11568
2018-02-26T10:42:30.238Z,12172
2018-02-26T10:43:29.948Z,11588
2018-02-26T10:44:30.223Z,10844
2018-02-26T10:45:49.357Z,9756
2018-02-26T10:46:30.146Z,9932
2018-02-26T10:47:30.104Z,9468
2018-02-26T10:48:30.139Z,9616
2018-02-26T10:49:29.839Z,10148
2018-02-26T10:50:30.072Z,9704
2018-02-26T10:51:30.075Z,8968
2018-02-26T10:52:29.757Z,8576
2018-02-26T10:53:30.032Z,8248
2018-02-26T10:54:30.032Z,7892
2018-02-26T10:55:29.971Z,7840
2018-02-26T10:56:29.981Z,8448
2018-02-26T10:57:30.037Z,9676
2018-02-26T10:58:29.968Z,10640
2018-02-26T10:59:29.920Z,10280
2018-02-26T11:00:29.885Z,9116
2018-02-26T11:01:29.882Z,8712
2018-02-26T11:02:29.867Z,8396
2018-02-26T11:03:29.607Z,8568
2018-02-26T11:04:29.568Z,9652
2018-02-26T11:05:29.577Z,10096
2018-02-26T11:06:29.816Z,11068
2018-02-26T11:07:29.797Z,9924
2018-02-26T11:08:29.792Z,9804
2018-02-26T11:09:29.907Z,10544
2018-02-26T11:10:29.740Z,10996
2018-02-26T11:11:29.704Z,12612
2018-02-26T11:12:29.697Z,13940
2018-02-26T11:13:29.711Z,12216
2018-02-26T11:14:29.188Z,10040
2018-02-26T11:15:29.682Z,9768
2018-02-26T11:16:29.675Z,9652
2018-02-26T11:17:30.006Z,9180
2018-02-26T11:18:29.622Z,9404
2018-02-26T11:19:29.332Z,10204
2018-02-26T11:20:29.594Z,11116
2018-02-26T11:21:29.634Z,12320
2018-02-26T11:22:29.560Z,10576
2018-02-26T11:23:29.564Z,9996
2018-02-26T11:24:29.232Z,11016
2018-02-26T11:25:29.474Z,11212
2018-02-26T11:26:29.489Z,13028
2018-02-26T11:27:29.475Z,13548
2018-02-26T11:28:29.441Z,11992
2018-02-26T11:29:29.418Z,10576
2018-02-26T11:30:29.400Z,11040
2018-02-26T11:31:28.882Z,9776
2018-02-26T11:32:29.347Z,7876
2018-02-26T11:33:29.363Z,9812
2018-02-26T11:34:29.471Z,11208
2018-02-26T11:35:29.069Z,10636
2018-02-26T11:36:29.291Z,9516
2018-02-26T11:37:29.271Z,8232
2018-02-26T11:38:29.306Z,7484
2018-02-26T11:39:29.024Z,8268
2018-02-26T11:40:29.211Z,9892
2018-02-26T11:41:29.228Z,8752
2018-02-26T11:42:29.217Z,7060
2018-02-26T11:43:29.187Z,6576
2018-02-26T11:44:28.923Z,6124
2018-02-26T11:45:29.183Z,6012
2018-02-26T11:46:29.126Z,5908
2018-02-26T11:47:29.144Z,5772
2018-02-26T11:48:29.103Z,5832
2018-02-26T11:49:28.806Z,6280
2018-02-26T11:50:28.620Z,6700
2018-02-26T11:51:28.834Z,6696
2018-02-26T11:52:29.052Z,6948
2018-02-26T11:53:29.201Z,7488
2018-02-26T11:54:28.800Z,7968
2018-02-26T11:55:29.010Z,7408
2018-02-26T11:56:28.988Z,7208
2018-02-26T11:57:28.950Z,7360
2018-02-26T11:58:28.681Z,7560
2018-02-26T11:59:28.947Z,7576
2018-02-26T12:00:28.686Z,7404
2018-02-26T12:01:28.905Z,8060
2018-02-26T12:02:28.898Z,10016
2018-02-26T12:03:28.577Z,11432
2018-02-26T12:04:28.860Z,10716
2018-02-26T12:05:28.972Z,11040
2018-02-26T12:06:28.602Z,12228
2018-02-26T12:07:28.818Z,14164
2018-02-26T12:08:29.043Z,12472
2018-02-26T12:09:28.544Z,10092
2018-02-26T12:10:28.736Z,11472
2018-02-26T12:11:28.473Z,12156
2018-02-26T12:12:28.845Z,11124
2018-02-26T12:13:28.458Z,12572
2018-02-26T12:14:28.398Z,14016
2018-02-26T12:15:28.422Z,11876
2018-02-26T12:16:28.609Z,11032
2018-02-26T12:17:28.390Z,11484
2018-02-26T12:18:28.605Z,10960
2018-02-26T12:19:28.363Z,10832
2018-02-26T12:20:28.515Z,11996
2018-02-26T12:21:28.586Z,12388
2018-02-26T12:22:28.615Z,10908
2018-02-26T12:23:28.555Z,11344
2018-02-26T12:24:28.533Z,12028
2018-02-26T12:25:27.977Z,10028
2018-02-26T12:26:28.468Z,9732
2018-02-26T12:27:28.473Z,8448
2018-02-26T12:28:28.467Z,9628
2018-02-26T12:29:27.932Z,9260
2018-02-26T12:30:28.151Z,7544
2018-02-26T12:31:28.384Z,7264
2018-02-26T12:32:28.471Z,8224
2018-02-26T12:33:28.381Z,9024
2018-02-26T12:34:28.386Z,7840
2018-02-26T12:35:28.357Z,7884
2018-02-26T12:36:28.333Z,8848
2018-02-26T12:37:28.298Z,9728
2018-02-26T12:38:28.299Z,9452
2018-02-26T12:39:28.317Z,9340
2018-02-26T12:40:28.276Z,9376
2018-02-26T12:41:28.012Z,10188
2018-02-26T12:42:28.259Z,10200
2018-02-26T12:43:27.986Z,9884
2018-02-26T12:44:28.202Z,9468
2018-02-26T12:45:28.195Z,9232
2018-02-26T12:46:28.175Z,8036
2018-02-26T12:47:28.170Z,8624
2018-02-26T12:48:28.132Z,8284
2018-02-26T12:49:27.873Z,8376
2018-02-26T12:50:28.193Z,9704
2018-02-26T12:51:28.093Z,9424
2018-02-26T12:52:28.092Z,8136
2018-02-26T12:53:27.815Z,8444
2018-02-26T12:54:27.835Z,8340
2018-02-26T12:55:28.033Z,8084
2018-02-26T12:56:28.030Z,8444
2018-02-26T12:57:27.729Z,9032
2018-02-26T12:58:27.990Z,9184
2018-02-26T12:59:27.982Z,8724
2018-02-26T13:00:27.692Z,9004
2018-02-26T13:01:27.920Z,9020
2018-02-26T13:02:27.409Z,7684
2018-02-26T13:03:27.635Z,7088
2018-02-26T13:04:27.634Z,7596
2018-02-26T13:05:27.886Z,8560
2018-02-26T13:06:27.584Z,8376
2018-02-26T13:07:27.848Z,6720
2018-02-26T13:08:27.821Z,6012
2018-02-26T13:09:27.298Z,6452
2018-02-26T13:10:27.839Z,6776
2018-02-26T13:11:27.509Z,7276
2018-02-26T13:12:27.502Z,8088
2018-02-26T13:13:27.780Z,8024
2018-02-26T13:14:27.767Z,7496
2018-02-26T13:15:27.693Z,6808
2018-02-26T13:16:27.674Z,6892
2018-02-26T13:17:27.660Z,7604
2018-02-26T13:18:27.657Z,7376
2018-02-26T13:19:27.115Z,6536
2018-02-26T13:20:27.605Z,6024
2018-02-26T13:21:27.600Z,6432
2018-02-26T13:22:27.583Z,6636
2018-02-26T13:23:27.571Z,6464
2018-02-26T13:24:27.588Z,6668
2018-02-26T13:25:27.558Z,6584
2018-02-26T13:26:27.510Z,6752
2018-02-26T13:27:27.225Z,6944
2018-02-26T13:28:27.477Z,7004
2018-02-26T13:29:27.183Z,6880
2018-02-26T13:30:26.909Z,6416
2018-02-26T13:31:27.448Z,5920
2018-02-26T13:32:27.485Z,5692
2018-02-26T13:33:27.421Z,5704
2018-02-26T13:34:26.856Z,5884
2018-02-26T13:35:27.352Z,6772
2018-02-26T13:36:27.077Z,7520
2018-02-26T13:37:27.063Z,7280
2018-02-26T13:38:26.775Z,6424
2018-02-26T13:39:27.272Z,5764
2018-02-26T13:40:26.996Z,5908
2018-02-26T13:41:26.979Z,6180
2018-02-26T13:42:27.488Z,7392
2018-02-26T13:43:27.202Z,8600
2018-02-26T13:44:26.924Z,8580
2018-02-26T13:45:27.199Z,7884
2018-02-26T13:46:27.153Z,7392
2018-02-26T13:47:27.129Z,7364
2018-02-26T13:48:26.856Z,7552